createdAt,value
2018-12-29T00:01:35.824Z,6.08
2018-12-29T00:04:06.765Z,6.05
2018-12-29T00:06:37.559Z,6.17
2018-12-29T00:09:09.024Z,6.14
2018-12-29T00:11:39.861Z,6.21
2018-12-29T00:14:10.737Z,6.18
2018-12-29T00:16:41.506Z,6.23
2018-12-29T00:19:12.333Z,6.16
2018-12-29T00:21:43.065Z,6.16
2018-12-29T00:24:13.817Z,6.24
2018-12-29T00:26:44.669Z,6.20
2018-12-29T00:29:15.509Z,6.32
2018-12-29T00:31:46.303Z,6.21
2018-12-29T00:34:17.256Z,6.25
2018-12-29T00:36:48.244Z,6.34
2018-12-29T00:39:19.045Z,6.33
2018-12-29T00:41:49.819Z,6.35
2018-12-29T00:44:20.674Z,6.25
2018-12-29T00:46:51.448Z,6.13
2018-12-29T00:49:22.243Z,6.17
2018-12-29T00:51:53.014Z,6.11
2018-12-29T00:54:23.799Z,6.19
2018-12-29T00:56:54.637Z,6.17
2018-12-29T00:59:25.461Z,6.25
2018-12-29T01:01:56.265Z,6.31
2018-12-29T01:04:27.077Z,6.32
2018-12-29T01:06:57.897Z,6.27
2018-12-29T01:09:28.709Z,6.27
2018-12-29T01:11:59.509Z,6.37
2018-12-29T01:14:30.348Z,6.36
2018-12-29T01:17:01.275Z,6.33
2018-12-29T01:19:32.059Z,6.35
2018-12-29T01:22:03.916Z,6.39
2018-12-29T01:24:34.695Z,6.45
2018-12-29T01:27:05.425Z,6.37
2018-12-29T01:29:37.129Z,6.37
2018-12-29T01:32:07.887Z,6.50
2018-12-29T01:34:38.673Z,6.51
2018-12-29T01:37:09.480Z,6.63
2018-12-29T01:39:40.211Z,6.57
2018-12-29T01:42:11.049Z,6.73
2018-12-29T01:44:41.877Z,6.90
2018-12-29T01:47:12.714Z,6.90
2018-12-29T01:49:43.450Z,6.73
2018-12-29T01:52:14.341Z,6.53
2018-12-29T01:54:45.101Z,6.50
2018-12-29T01:57:15.951Z,6.58
2018-12-29T01:59:46.801Z,6.50
2018-12-29T02:02:17.649Z,6.56
2018-12-29T02:04:48.391Z,6.49
2018-12-29T02:07:19.238Z,6.52
2018-12-29T02:09:50.097Z,6.39
2018-12-29T02:12:20.960Z,6.67
2018-12-29T02:14:51.796Z,6.70
2018-12-29T02:17:22.593Z,6.61
2018-12-29T02:19:53.506Z,6.47
2018-12-29T02:22:24.413Z,6.49
2018-12-29T02:24:55.209Z,6.44
2018-12-29T02:27:25.993Z,6.46
2018-12-29T02:29:56.962Z,6.36
2018-12-29T02:32:27.736Z,6.37
2018-12-29T02:34:58.562Z,6.44
2018-12-29T02:37:29.343Z,6.58
2018-12-29T02:40:00.160Z,6.66
2018-12-29T02:42:31.077Z,6.55
2018-12-29T02:45:01.838Z,6.57
2018-12-29T02:47:32.748Z,6.58
2018-12-29T02:50:03.730Z,6.66
2018-12-29T02:52:34.569Z,6.58
2018-12-29T02:55:06.516Z,6.57
2018-12-29T02:57:37.293Z,6.63
2018-12-29T03:00:08.241Z,6.71
2018-12-29T03:02:39.176Z,6.73
2018-12-29T03:05:10.012Z,6.70
2018-12-29T03:07:42.850Z,6.76
2018-12-29T03:10:13.656Z,6.81
2018-12-29T03:12:44.436Z,6.88
2018-12-29T03:15:15.304Z,6.86
2018-12-29T03:17:46.068Z,6.87
2018-12-29T03:20:16.869Z,6.86
2018-12-29T03:22:47.640Z,6.88
2018-12-29T03:25:18.459Z,6.79
2018-12-29T03:27:49.281Z,6.93
2018-12-29T03:30:20.107Z,6.90
2018-12-29T03:32:50.896Z,6.85
2018-12-29T03:35:21.645Z,6.76
2018-12-29T03:37:52.467Z,6.78
2018-12-29T03:40:23.254Z,6.69
2018-12-29T03:42:54.128Z,6.71
2018-12-29T03:45:24.964Z,6.71
2018-12-29T03:47:55.739Z,6.53
2018-12-29T03:50:26.532Z,6.58
2018-12-29T03:52:57.632Z,6.60
2018-12-29T03:55:28.420Z,6.65
2018-12-29T03:57:59.252Z,6.63
2018-12-29T04:00:30.033Z,6.65
2018-12-29T04:03:00.869Z,6.69
2018-12-29T04:05:31.665Z,6.65
2018-12-29T04:08:02.402Z,6.42
2018-12-29T04:10:33.159Z,6.43
2018-12-29T04:13:04.207Z,6.52
2018-12-29T04:15:34.973Z,6.22
2018-12-29T04:18:05.777Z,6.41
2018-12-29T04:20:36.525Z,6.56
2018-12-29T04:23:07.330Z,6.60
2018-12-29T04:25:38.124Z,6.55
2018-12-29T04:28:08.885Z,6.53
2018-12-29T04:30:39.664Z,6.60
2018-12-29T04:33:10.489Z,6.56
2018-12-29T04:35:41.430Z,6.47
2018-12-29T04:38:12.202Z,6.57
2018-12-29T04:40:42.948Z,6.52
2018-12-29T04:43:13.749Z,6.58
2018-12-29T04:45:44.508Z,6.62
2018-12-29T04:48:15.346Z,6.65
2018-12-29T04:50:46.180Z,6.74
2018-12-29T04:53:17.051Z,6.75
2018-12-29T04:55:47.898Z,6.74
2018-12-29T04:58:18.805Z,6.75
2018-12-29T05:00:49.573Z,6.67
2018-12-29T05:03:20.322Z,6.63
2018-12-29T05:05:51.115Z,6.56
2018-12-29T05:08:21.953Z,6.55
2018-12-29T05:10:52.696Z,6.66
2018-12-29T05:13:23.496Z,6.70
2018-12-29T05:15:54.392Z,6.76
2018-12-29T05:18:25.143Z,6.62
2018-12-29T05:20:55.996Z,6.51
2018-12-29T05:23:26.816Z,6.51
2018-12-29T05:25:57.699Z,6.60
2018-12-29T05:28:28.607Z,6.75
2018-12-29T05:30:59.352Z,6.78
2018-12-29T05:33:30.220Z,6.58
2018-12-29T05:36:00.991Z,6.63
2018-12-29T05:38:31.772Z,6.60
2018-12-29T05:41:02.551Z,6.49
2018-12-29T05:43:33.360Z,6.58
2018-12-29T05:46:04.208Z,6.64
2018-12-29T05:48:35.032Z,6.62
2018-12-29T05:51:05.801Z,6.60
2018-12-29T05:53:36.541Z,6.57
2018-12-29T05:56:07.368Z,6.66
2018-12-29T05:58:38.147Z,6.65
2018-12-29T06:01:09.008Z,6.62
2018-12-29T06:03:39.798Z,6.46
2018-12-29T06:06:10.590Z,6.46
2018-12-29T06:08:41.454Z,6.51
2018-12-29T06:11:12.236Z,6.37
2018-12-29T06:13:46.336Z,6.24
2018-12-29T06:16:17.104Z,6.34
2018-12-29T06:18:47.928Z,6.34
2018-12-29T06:21:18.708Z,6.33
2018-12-29T06:23:49.555Z,6.30
2018-12-29T06:26:20.324Z,6.27
2018-12-29T06:28:51.077Z,6.18
2018-12-29T06:31:21.920Z,6.26
2018-12-29T06:33:52.747Z,6.24
2018-12-29T06:36:23.577Z,6.25
2018-12-29T06:38:54.358Z,6.28
2018-12-29T06:41:25.231Z,6.31
2018-12-29T06:43:56.108Z,6.26
2018-12-29T06:46:26.948Z,6.41
2018-12-29T06:48:57.677Z,6.33
2018-12-29T06:51:28.585Z,6.32
2018-12-29T06:53:59.370Z,6.32
2018-12-29T06:56:30.123Z,6.22
2018-12-29T06:59:01.295Z,6.28
2018-12-29T07:01:32.051Z,6.29
2018-12-29T07:04:02.860Z,6.23
2018-12-29T07:06:33.815Z,6.21
2018-12-29T07:09:06.783Z,6.26
2018-12-29T07:11:38.655Z,6.29
2018-12-29T07:14:09.535Z,6.45
2018-12-29T07:16:42.428Z,6.23
2018-12-29T07:19:13.222Z,6.27
2018-12-29T07:21:44.007Z,6.21
2018-12-29T07:24:15.139Z,6.14
2018-12-29T07:26:45.980Z,6.19
2018-12-29T07:29:17.399Z,6.25
2018-12-29T07:31:48.499Z,6.31
2018-12-29T07:34:19.443Z,6.35
2018-12-29T07:36:50.287Z,6.39
2018-12-29T07:39:21.137Z,6.36
2018-12-29T07:41:51.921Z,6.33
2018-12-29T07:44:22.707Z,6.35
2018-12-29T07:46:53.571Z,6.27
2018-12-29T07:49:24.346Z,6.08
2018-12-29T07:51:55.155Z,6.03
2018-12-29T07:54:25.940Z,6.39
2018-12-29T07:56:56.836Z,6.35
2018-12-29T07:59:27.843Z,6.30
2018-12-29T08:01:58.679Z,6.38
2018-12-29T08:04:29.441Z,6.44
2018-12-29T08:07:00.204Z,6.55
2018-12-29T08:09:30.985Z,6.47
2018-12-29T08:12:01.811Z,6.42
2018-12-29T08:14:32.634Z,6.53
2018-12-29T08:17:03.527Z,6.56
2018-12-29T08:19:35.022Z,6.49
2018-12-29T08:22:05.868Z,6.55
2018-12-29T08:24:36.726Z,6.51
2018-12-29T08:27:07.562Z,6.64
2018-12-29T08:29:38.422Z,6.62
2018-12-29T08:32:09.342Z,6.65
2018-12-29T08:34:40.204Z,6.71
2018-12-29T08:37:11.086Z,6.96
2018-12-29T08:39:41.839Z,7.02
2018-12-29T08:42:12.667Z,7.15
2018-12-29T08:44:43.607Z,7.22
2018-12-29T08:47:14.376Z,6.99
2018-12-29T08:49:50.106Z,6.99
2018-12-29T08:52:20.951Z,6.85
2018-12-29T08:54:51.958Z,6.82
2018-12-29T08:57:23.248Z,6.75
2018-12-29T08:59:54.317Z,6.80
2018-12-29T09:02:25.280Z,6.71
2018-12-29T09:04:57.382Z,6.64
2018-12-29T09:07:28.567Z,6.65
2018-12-29T09:10:05.821Z,6.65
2018-12-29T09:12:36.881Z,6.68
2018-12-29T09:15:31.178Z,6.56
2018-12-29T09:18:02.076Z,6.48
2018-12-29T09:20:32.928Z,6.50
2018-12-29T09:23:03.809Z,6.31
2018-12-29T09:25:34.646Z,6.32
2018-12-29T09:28:05.456Z,6.37
2018-12-29T09:30:36.476Z,6.38
2018-12-29T09:33:07.418Z,6.42
2018-12-29T09:35:41.749Z,6.39
2018-12-29T09:38:12.526Z,6.52
2018-12-29T09:40:43.431Z,6.28
2018-12-29T09:43:14.266Z,6.32
2018-12-29T09:45:45.137Z,6.51
2018-12-29T09:48:16.020Z,6.72
2018-12-29T09:50:57.408Z,6.70
2018-12-29T09:53:28.286Z,6.52
2018-12-29T09:55:59.189Z,6.72
2018-12-29T09:58:30.164Z,6.65
2018-12-29T10:01:01.128Z,6.76
2018-12-29T10:03:32.087Z,6.89
2018-12-29T10:06:02.928Z,6.88
2018-12-29T10:08:33.841Z,6.96
2018-12-29T10:11:04.921Z,6.93
2018-12-29T10:13:35.913Z,7.05
2018-12-29T10:16:06.813Z,6.97
2018-12-29T10:18:38.051Z,7.12
2018-12-29T10:21:26.261Z,7.07
2018-12-29T10:23:48.301Z,7.12
2018-12-29T10:26:22.049Z,7.09
2018-12-29T10:28:54.563Z,7.02
2018-12-29T10:31:49.177Z,6.91
2018-12-29T10:34:20.333Z,7.06
2018-12-29T10:37:02.263Z,7.18
2018-12-29T10:39:33.412Z,7.23
2018-12-29T10:45:06.809Z,7.38
2018-12-29T10:47:42.925Z,7.24
2018-12-29T10:50:13.844Z,7.29
2018-12-29T10:52:44.814Z,7.25
2018-12-29T10:55:15.985Z,7.27
2018-12-29T10:57:48.181Z,7.41
2018-12-29T11:00:19.177Z,7.52
2018-12-29T11:02:55.782Z,7.42
2018-12-29T11:05:27.211Z,7.14
2018-12-29T11:07:58.261Z,7.12
2018-12-29T11:11:21.446Z,7.08
2018-12-29T11:13:07.177Z,7.30
2018-12-29T11:16:01.625Z,7.40
2018-12-29T11:18:32.795Z,7.44
2018-12-29T11:21:06.183Z,7.52
2018-12-29T11:23:37.107Z,7.57
2018-12-29T11:26:08.552Z,7.23
2018-12-29T11:28:39.353Z,7.32
2018-12-29T11:31:10.181Z,7.32
2018-12-29T11:33:41.352Z,7.45
2018-12-29T11:36:12.376Z,7.59
2018-12-29T11:38:43.305Z,7.52
2018-12-29T11:41:14.232Z,7.42
2018-12-29T11:43:45.656Z,7.39
2018-12-29T11:46:16.504Z,7.46
2018-12-29T11:48:47.363Z,7.57
2018-12-29T11:51:18.572Z,7.42
2018-12-29T11:53:49.499Z,7.44
2018-12-29T11:56:20.386Z,7.36
2018-12-29T11:58:51.330Z,7.36
2018-12-29T12:01:25.632Z,7.58
2018-12-29T12:03:56.468Z,7.47
2018-12-29T12:06:27.307Z,7.54
2018-12-29T12:08:58.720Z,7.48
2018-12-29T12:11:31.141Z,7.63
2018-12-29T12:14:02.424Z,7.75
2018-12-29T12:16:33.400Z,7.56
2018-12-29T12:19:04.238Z,7.91
2018-12-29T12:21:35.080Z,8.08
2018-12-29T12:24:06.060Z,8.06
2018-12-29T12:26:36.943Z,7.80
2018-12-29T12:29:07.890Z,7.77
2018-12-29T12:31:39.037Z,7.66
2018-12-29T12:34:10.342Z,7.72
2018-12-29T12:36:41.680Z,7.53
2018-12-29T12:39:12.583Z,7.67
2018-12-29T12:41:44.283Z,7.55
2018-12-29T12:44:15.078Z,7.58
2018-12-29T12:46:46.306Z,7.46
2018-12-29T12:49:17.390Z,7.29
2018-12-29T12:51:48.311Z,7.22
2018-12-29T12:54:19.157Z,7.39
2018-12-29T12:56:50.035Z,7.30
2018-12-29T12:59:21.188Z,7.15
2018-12-29T13:01:52.900Z,7.30
2018-12-29T13:04:34.716Z,7.16
2018-12-29T13:07:04.929Z,7.31
2018-12-29T13:09:35.800Z,7.28
2018-12-29T13:12:06.634Z,7.28
2018-12-29T13:14:37.435Z,7.24
2018-12-29T13:17:08.948Z,7.36
2018-12-29T13:19:39.812Z,7.22
2018-12-29T13:22:10.955Z,7.10
2018-12-29T13:24:43.639Z,7.13
2018-12-29T13:27:14.631Z,7.15
2018-12-29T13:29:45.592Z,7.05
2018-12-29T13:32:17.347Z,7.04
2018-12-29T13:34:48.330Z,7.00
2018-12-29T13:37:19.422Z,6.94
2018-12-29T13:39:54.726Z,6.87
2018-12-29T13:42:26.881Z,6.98
2018-12-29T13:45:03.383Z,7.09
2018-12-29T13:47:47.432Z,7.12
2018-12-29T13:50:18.504Z,7.23
2018-12-29T13:52:50.576Z,7.19
2018-12-29T13:55:21.928Z,7.31
2018-12-29T13:57:53.333Z,7.10
2018-12-29T14:00:24.231Z,7.00
2018-12-29T14:02:55.417Z,7.14
2018-12-29T14:05:26.753Z,7.21
2018-12-29T14:07:57.631Z,7.22
2018-12-29T14:10:28.706Z,7.18
2018-12-29T14:13:00.303Z,7.08
2018-12-29T14:15:31.362Z,7.12
2018-12-29T14:18:02.229Z,6.92
2018-12-29T14:20:33.072Z,7.02
2018-12-29T14:23:06.808Z,6.94
2018-12-29T14:25:41.985Z,6.86
2018-12-29T14:28:19.802Z,6.96
2018-12-29T14:35:16.389Z,6.90
2018-12-29T14:37:51.077Z,6.85
2018-12-29T14:40:22.277Z,7.09
2018-12-29T14:42:53.600Z,7.00
2018-12-29T14:45:33.117Z,7.00
2018-12-29T14:48:10.080Z,6.97
2018-12-29T14:50:43.426Z,7.04
2018-12-29T14:53:47.782Z,6.84
2018-12-29T15:01:12.492Z,6.75
2018-12-29T15:04:13.346Z,6.70
2018-12-29T15:07:39.200Z,6.73
2018-12-29T15:10:23.519Z,6.62
2018-12-29T15:12:54.658Z,6.78
2018-12-29T15:15:26.679Z,6.77
2018-12-29T15:17:59.269Z,6.69
2018-12-29T15:20:32.353Z,6.70
2018-12-29T15:23:07.029Z,6.73
2018-12-29T15:25:38.686Z,6.40
2018-12-29T15:28:11.092Z,6.61
2018-12-29T15:30:43.054Z,6.60
2018-12-29T15:33:14.974Z,6.58
2018-12-29T15:35:46.980Z,6.64
2018-12-29T15:38:19.104Z,6.61
2018-12-29T15:40:51.411Z,6.55
2018-12-29T15:43:23.243Z,6.55
2018-12-29T15:45:54.786Z,6.55
2018-12-29T15:48:30.191Z,6.56
2018-12-29T15:51:01.663Z,6.54
2018-12-29T15:53:33.510Z,6.51
2018-12-29T15:56:05.154Z,6.48
2018-12-29T15:58:36.820Z,6.42
2018-12-29T16:01:08.692Z,6.49
2018-12-29T16:03:40.573Z,6.45
2018-12-29T16:06:12.524Z,6.51
2018-12-29T16:08:44.552Z,6.46
2018-12-29T16:11:16.425Z,6.40
2018-12-29T16:13:47.749Z,6.36
2018-12-29T16:16:24.101Z,6.43
2018-12-29T16:19:18.941Z,6.55
2018-12-29T16:21:53.331Z,6.57
2018-12-29T16:24:26.431Z,6.42
2018-12-29T16:27:16.782Z,6.32
2018-12-29T16:30:12.513Z,6.54
2018-12-29T16:33:38.675Z,6.66
2018-12-29T16:36:18.416Z,6.72
2018-12-29T16:38:49.831Z,6.70
2018-12-29T16:41:28.739Z,6.50
2018-12-29T16:49:21.757Z,6.49
2018-12-29T16:51:58.661Z,6.44
2018-12-29T16:54:49.068Z,6.47
2018-12-29T16:57:19.645Z,6.37
2018-12-29T16:59:55.200Z,6.35
2018-12-29T17:02:30.989Z,6.36
2018-12-29T17:05:02.237Z,6.35
2018-12-29T17:11:57.337Z,6.38
2018-12-29T17:14:40.117Z,6.48
2018-12-29T17:18:04.748Z,6.51
2018-12-29T17:21:05.504Z,6.40
2018-12-29T17:23:57.609Z,6.37
2018-12-29T17:30:39.998Z,6.44
2018-12-29T17:33:13.977Z,6.44
2018-12-29T17:35:47.039Z,6.40
2018-12-29T17:38:19.737Z,6.41
2018-12-29T17:42:02.089Z,6.19
2018-12-29T17:44:43.920Z,6.35
2018-12-29T17:47:15.529Z,6.39
2018-12-29T17:49:58.070Z,6.42
2018-12-29T17:52:37.988Z,6.40
2018-12-29T17:55:12.137Z,6.36
2018-12-29T17:58:12.857Z,6.35
2018-12-29T18:00:45.975Z,6.36
2018-12-29T18:03:34.765Z,6.38
2018-12-29T18:06:07.825Z,6.36
2018-12-29T18:08:39.348Z,6.41
2018-12-29T18:11:10.504Z,6.44
2018-12-29T18:13:41.327Z,6.43
2018-12-29T18:16:12.389Z,6.40
2018-12-29T18:18:43.397Z,6.37
2018-12-29T18:21:14.305Z,6.41
2018-12-29T18:23:45.398Z,6.38
2018-12-29T18:26:16.698Z,6.38
2018-12-29T18:28:47.665Z,6.36
2018-12-29T18:31:18.727Z,6.39
2018-12-29T18:33:49.662Z,6.36
2018-12-29T18:36:20.689Z,6.47
2018-12-29T18:38:51.721Z,6.47
2018-12-29T18:41:23.064Z,6.47
2018-12-29T18:43:54.091Z,6.54
2018-12-29T18:46:25.172Z,6.51
2018-12-29T18:48:56.475Z,6.44
2018-12-29T18:51:27.654Z,6.40
2018-12-29T18:53:58.825Z,6.39
2018-12-29T18:56:30.093Z,6.39
2018-12-29T18:59:01.020Z,6.38
2018-12-29T19:01:31.961Z,6.28
2018-12-29T19:04:02.876Z,6.31
2018-12-29T19:06:33.951Z,6.42
2018-12-29T19:09:06.675Z,6.42
2018-12-29T19:11:37.711Z,6.36
2018-12-29T19:14:09.772Z,6.32
2018-12-29T19:16:40.646Z,6.31
2018-12-29T19:19:11.507Z,6.21
2018-12-29T19:21:42.305Z,6.16
2018-12-29T19:24:13.149Z,6.11
2018-12-29T19:26:44.408Z,6.03
2018-12-29T19:29:15.328Z,5.99
2018-12-29T19:31:46.633Z,5.96
2018-12-29T19:34:17.960Z,5.93
2018-12-29T19:36:48.823Z,5.88
2018-12-29T19:39:20.387Z,5.86
2018-12-29T19:41:54.964Z,5.86
2018-12-29T19:44:23.761Z,5.84
2018-12-29T19:46:55.107Z,5.82
2018-12-29T19:49:26.012Z,5.84
2018-12-29T19:51:57.245Z,5.88
2018-12-29T19:55:13.781Z,5.84
2018-12-29T19:57:47.207Z,5.83
2018-12-29T20:00:20.791Z,5.84
2018-12-29T20:02:53.571Z,5.77
2018-12-29T20:05:25.782Z,5.71
2018-12-29T20:07:58.371Z,5.71
2018-12-29T20:10:30.081Z,5.73
2018-12-29T20:13:01.874Z,5.70
2018-12-29T20:15:33.463Z,5.68
2018-12-29T20:18:05.162Z,5.60
2018-12-29T20:20:37.619Z,5.64
2018-12-29T20:23:09.643Z,5.64
2018-12-29T20:25:41.339Z,5.69
2018-12-29T20:28:15.659Z,5.74
2018-12-29T20:30:48.113Z,5.74
2018-12-29T20:33:22.338Z,5.77
2018-12-29T20:35:57.380Z,5.74
2018-12-29T20:38:31.847Z,5.78
2018-12-29T20:41:04.414Z,5.77
2018-12-29T20:43:36.646Z,5.75
2018-12-29T20:46:08.444Z,5.79
2018-12-29T20:48:40.399Z,5.82
2018-12-29T20:51:12.360Z,5.85
2018-12-29T20:53:44.864Z,5.86
2018-12-29T20:56:17.857Z,5.83
2018-12-29T20:58:58.077Z,5.80
2018-12-29T21:01:30.108Z,5.78
2018-12-29T21:04:01.810Z,5.76
2018-12-29T21:06:33.603Z,5.72
2018-12-29T21:09:08.650Z,5.71
2018-12-29T21:11:40.337Z,5.68
2018-12-29T21:14:11.994Z,5.72
2018-12-29T21:16:45.556Z,5.70
2018-12-29T21:19:19.910Z,5.75
2018-12-29T21:21:51.486Z,5.73
2018-12-29T21:24:23.164Z,5.73
2018-12-29T21:26:54.682Z,5.77
2018-12-29T21:51:52.489Z,5.46
2018-12-29T21:54:27.146Z,5.38
2018-12-29T21:57:00.623Z,5.36
2018-12-29T21:59:33.261Z,5.35
2018-12-29T22:02:06.024Z,5.27
2018-12-29T22:04:43.958Z,5.31
2018-12-29T22:07:19.317Z,5.27
2018-12-29T22:09:51.787Z,5.22
2018-12-29T22:12:24.863Z,5.17
2018-12-29T22:14:57.494Z,5.22
2018-12-29T22:17:37.242Z,5.24
2018-12-29T22:20:13.526Z,5.16
2018-12-29T22:22:52.311Z,5.18
2018-12-29T22:25:24.192Z,5.13
2018-12-29T22:27:57.518Z,5.12
2018-12-29T22:30:30.197Z,5.14
2018-12-29T22:33:01.911Z,5.11
2018-12-29T22:35:33.992Z,5.10
2018-12-29T22:38:11.849Z,5.07
2018-12-29T22:40:57.655Z,5.02
2018-12-29T22:43:32.784Z,5.06
2018-12-29T22:46:04.542Z,5.02
2018-12-29T22:48:37.130Z,5.02
2018-12-29T22:51:34.854Z,5.00
2018-12-29T22:53:45.043Z,5.03
2018-12-29T22:56:20.270Z,5.14
2018-12-29T22:58:52.806Z,5.11
2018-12-29T23:01:24.674Z,5.07
2018-12-29T23:03:55.808Z,5.15
2018-12-29T23:06:26.895Z,5.06
2018-12-29T23:08:57.902Z,5.06
2018-12-29T23:11:28.944Z,5.08
2018-12-29T23:14:00.208Z,5.03
2018-12-29T23:16:31.090Z,5.06
2018-12-29T23:19:02.673Z,5.06
2018-12-29T23:21:33.610Z,5.00
2018-12-29T23:24:05.030Z,4.96
2018-12-29T23:50:21.971Z,5.26
2018-12-29T23:52:53.257Z,5.28
2018-12-29T23:55:24.420Z,5.33
2018-12-29T23:57:55.385Z,5.29
